Terminal Aerodrome Forecast
Issued by NWS Sioux Falls, SD

Home | Current Version | Previous Version | Graphics & Text | Print | Product List | Glossary On
Versions: 1 2 3 4 5 6 7 8 9 10 11 12 13 14 15
000
FTUS43 KFSD 261129
TAFSUX
TAF
KSUX 261129Z 2612/2712 32017G25KT P6SM OVC010
     FM261800 33018G26KT P6SM OVC020
     FM270200 33013KT P6SM BKN035
     FM270500 33010KT P6SM SCT040
     FM270900 34009KT P6SM SCT018=

USA.gov is the U.S. government's official web portal to all federal, state and local government web resources and services.